createdAt,value
2018-12-05T08:45:48.712Z,3804.00
2018-12-05T08:46:48.670Z,4464.00
2018-12-05T08:47:49.697Z,4124.00
2018-12-05T08:48:48.659Z,4096.00
2018-12-05T08:49:48.726Z,3988.00
2018-12-05T08:50:48.638Z,4012.00
2018-12-05T08:51:48.709Z,4800.00
2018-12-05T08:52:48.607Z,6084.00
2018-12-05T08:53:48.681Z,6896.00
2018-12-05T08:54:48.599Z,6208.00
2018-12-05T08:55:48.649Z,6924.00
2018-12-05T08:56:48.558Z,9008.00
2018-12-05T08:57:48.627Z,6160.00
2018-12-05T08:58:48.547Z,7672.00
2018-12-05T08:59:48.621Z,6824.00
2018-12-05T09:00:48.512Z,6948.00
2018-12-05T09:01:48.559Z,6732.00
2018-12-05T09:02:48.487Z,5912.00
2018-12-05T09:03:48.525Z,6672.00
2018-12-05T09:04:48.490Z,7212.00
2018-12-05T09:05:48.531Z,7544.00
2018-12-05T09:06:48.451Z,6812.00
2018-12-05T09:07:48.461Z,6132.00
2018-12-05T09:08:48.417Z,6588.00
2018-12-05T09:09:48.467Z,9000.00
2018-12-05T09:10:48.419Z,5424.00
2018-12-05T09:11:48.502Z,4920.00
2018-12-05T09:12:48.375Z,6716.00
2018-12-05T09:13:48.463Z,7560.00
2018-12-05T09:14:48.383Z,9568.00
2018-12-05T09:15:48.441Z,7556.00
2018-12-05T09:16:48.351Z,7952.00
2018-12-05T09:17:48.421Z,8160.00
2018-12-05T09:18:48.306Z,7060.00
2018-12-05T09:19:48.391Z,6384.00
2018-12-05T09:20:48.313Z,6916.00
2018-12-05T09:21:48.335Z,5800.00
2018-12-05T09:22:48.273Z,6224.00
2018-12-05T09:23:48.311Z,6120.00
2018-12-05T09:24:48.251Z,6208.00
2018-12-05T09:25:49.342Z,6952.00
2018-12-05T09:26:48.223Z,8912.00
2018-12-05T09:27:48.338Z,8844.00
2018-12-05T09:28:48.201Z,8780.00
2018-12-05T09:29:48.315Z,8568.00
2018-12-05T09:30:48.203Z,9644.00
2018-12-05T09:31:48.279Z,8920.00
2018-12-05T09:32:48.159Z,9832.00
2018-12-05T09:33:49.171Z,10044.00
2018-12-05T09:34:48.136Z,10184.00
2018-12-05T09:35:48.251Z,10492.00
2018-12-05T09:36:48.105Z,10532.00
2018-12-05T09:37:49.217Z,10588.00
2018-12-05T09:38:48.100Z,11340.00
2018-12-05T09:39:48.158Z,10196.00
2018-12-05T09:40:48.093Z,10032.00
2018-12-05T09:41:48.227Z,9940.00
2018-12-05T09:42:48.039Z,9876.00
2018-12-05T09:43:48.193Z,10156.00
2018-12-05T09:44:48.020Z,10336.00
2018-12-05T09:45:48.207Z,10280.00
2018-12-05T09:46:48.000Z,10508.00
2018-12-05T09:47:48.135Z,10480.00
2018-12-05T09:48:47.973Z,10576.00
2018-12-05T09:49:48.096Z,10664.00
2018-12-05T09:50:47.974Z,10724.00
2018-12-05T09:51:48.068Z,10676.00
2018-12-05T09:52:47.924Z,10632.00
2018-12-05T09:53:48.031Z,10584.00
2018-12-05T09:54:47.916Z,10720.00
2018-12-05T09:55:48.079Z,10660.00
2018-12-05T09:56:47.883Z,10696.00
2018-12-05T09:57:47.970Z,10696.00
2018-12-05T09:58:47.864Z,10740.00
2018-12-05T09:59:48.044Z,10744.00
2018-12-05T10:00:47.870Z,10624.00
2018-12-05T10:01:47.915Z,10660.00
2018-12-05T10:02:47.841Z,10776.00
2018-12-05T10:03:47.976Z,10960.00
2018-12-05T10:04:47.796Z,11092.00
2018-12-05T10:05:47.942Z,11280.00
2018-12-05T10:06:47.796Z,11368.00
2018-12-05T10:07:47.911Z,11156.00
2018-12-05T10:08:47.744Z,10764.00
2018-12-05T10:09:47.878Z,10332.00
2018-12-05T10:10:47.718Z,9948.00
2018-12-05T10:11:47.843Z,9652.00
2018-12-05T10:12:47.702Z,9552.00
2018-12-05T10:13:48.840Z,9500.00
2018-12-05T10:14:47.680Z,9432.00
2018-12-05T10:15:49.732Z,9428.00
2018-12-05T10:16:47.682Z,9412.00
2018-12-05T10:17:47.758Z,9392.00
2018-12-05T10:18:47.629Z,9372.00
2018-12-05T10:19:47.734Z,9368.00
2018-12-05T10:20:47.618Z,9332.00
2018-12-05T10:21:47.738Z,9340.00
2018-12-05T10:22:47.595Z,9296.00
2018-12-05T10:23:47.653Z,9264.00
2018-12-05T10:24:47.563Z,9296.00
2018-12-05T10:25:47.727Z,9416.00
2018-12-05T10:26:47.562Z,9704.00
2018-12-05T10:27:47.597Z,10052.00
2018-12-05T10:28:47.522Z,10448.00
2018-12-05T10:29:47.662Z,10732.00
2018-12-05T10:30:47.505Z,10980.00
2018-12-05T10:31:47.676Z,11156.00
2018-12-05T10:32:47.476Z,11224.00
2018-12-05T10:33:47.601Z,10152.00
2018-12-05T10:34:47.444Z,8472.00
2018-12-05T10:35:47.578Z,7108.00
2018-12-05T10:36:47.448Z,6836.00
2018-12-05T10:37:47.537Z,6816.00
2018-12-05T10:38:47.396Z,6784.00
2018-12-05T10:39:47.515Z,6728.00
2018-12-05T10:40:47.375Z,6724.00
2018-12-05T10:41:47.518Z,6712.00
2018-12-05T10:42:47.357Z,6676.00
2018-12-05T10:43:47.545Z,6640.00
2018-12-05T10:44:47.341Z,6532.00
2018-12-05T10:45:47.410Z,6392.00
2018-12-05T10:46:47.345Z,6360.00
2018-12-05T10:47:47.495Z,6312.00
2018-12-05T10:48:47.304Z,6260.00
2018-12-05T10:49:47.450Z,6200.00
2018-12-05T10:50:47.266Z,5908.00
2018-12-05T10:51:47.348Z,5244.00
2018-12-05T10:52:47.237Z,4336.00
2018-12-05T10:53:47.397Z,3892.00
2018-12-05T10:54:47.233Z,3848.00
2018-12-05T10:55:47.262Z,3824.00
2018-12-05T10:56:47.226Z,3804.00
2018-12-05T10:57:47.324Z,3784.00
2018-12-05T10:58:47.184Z,3752.00
2018-12-05T10:59:47.295Z,3720.00
2018-12-05T11:00:47.181Z,3724.00
2018-12-05T11:01:47.297Z,3724.00
2018-12-05T11:02:47.123Z,3708.00
2018-12-05T11:03:47.225Z,3700.00
2018-12-05T11:04:47.110Z,3708.00
2018-12-05T11:05:47.410Z,3708.00
2018-12-05T11:06:47.162Z,3720.00
2018-12-05T11:07:47.200Z,3744.00
2018-12-05T11:08:47.055Z,3756.00
2018-12-05T11:09:47.233Z,3768.00
2018-12-05T11:10:47.031Z,3844.00
2018-12-05T11:11:47.204Z,4048.00
2018-12-05T11:12:47.037Z,4512.00
2018-12-05T11:13:47.073Z,5160.00
2018-12-05T11:14:46.995Z,5548.00
2018-12-05T11:15:47.143Z,5564.00
2018-12-05T11:16:46.987Z,5492.00
2018-12-05T11:17:47.045Z,5440.00
2018-12-05T11:18:46.951Z,5388.00
2018-12-05T11:19:47.087Z,5320.00
2018-12-05T11:20:46.923Z,5236.00
2018-12-05T11:21:49.871Z,5172.00
2018-12-05T11:22:46.920Z,5128.00
2018-12-05T11:23:47.595Z,5048.00
2018-12-05T11:24:46.873Z,4968.00
2018-12-05T11:25:46.972Z,4904.00
2018-12-05T11:26:46.849Z,4848.00
2018-12-05T11:27:47.081Z,4784.00
2018-12-05T11:28:46.840Z,4704.00
2018-12-05T11:29:46.909Z,4660.00
2018-12-05T11:30:46.811Z,4596.00
2018-12-05T11:31:46.878Z,4524.00
2018-12-05T11:32:46.946Z,4436.00
2018-12-05T11:33:46.949Z,4388.00
2018-12-05T11:34:46.765Z,4320.00
2018-12-05T11:35:46.821Z,4244.00
2018-12-05T11:36:46.739Z,4168.00
2018-12-05T11:37:46.926Z,4056.00
2018-12-05T11:38:46.728Z,3936.00
2018-12-05T11:39:46.852Z,3768.00
2018-12-05T11:40:46.710Z,3588.00
2018-12-05T11:41:46.834Z,3492.00
2018-12-05T11:42:46.745Z,3456.00
2018-12-05T11:43:46.788Z,3420.00
2018-12-05T11:44:46.657Z,3400.00
2018-12-05T11:45:46.863Z,3372.00
2018-12-05T11:46:46.629Z,3356.00
2018-12-05T11:47:46.768Z,3348.00
2018-12-05T11:48:46.625Z,3320.00
2018-12-05T11:49:46.797Z,3304.00
2018-12-05T11:50:46.592Z,3304.00
2018-12-05T11:51:46.660Z,3312.00
2018-12-05T11:52:46.602Z,3300.00
2018-12-05T11:53:46.629Z,3264.00
2018-12-05T11:54:46.544Z,3260.00
2018-12-05T11:55:46.611Z,3244.00
2018-12-05T11:56:46.533Z,3236.00
2018-12-05T11:57:46.567Z,3220.00
2018-12-05T11:58:46.529Z,3208.00
2018-12-05T11:59:46.547Z,3196.00
2018-12-05T12:00:46.475Z,3196.00
2018-12-05T12:01:46.469Z,3188.00
2018-12-05T12:02:46.463Z,3188.00
2018-12-05T12:03:46.511Z,3172.00
2018-12-05T12:04:46.429Z,3160.00
2018-12-05T12:05:46.561Z,3164.00
2018-12-05T12:06:46.415Z,3160.00
2018-12-05T12:07:46.513Z,3160.00
2018-12-05T12:08:46.407Z,3168.00
2018-12-05T12:09:46.481Z,3168.00
2018-12-05T12:10:46.363Z,3156.00
2018-12-05T12:11:46.445Z,3148.00
2018-12-05T12:12:46.339Z,3136.00
2018-12-05T12:13:46.451Z,3128.00
2018-12-05T12:14:46.329Z,3120.00
2018-12-05T12:15:46.379Z,3116.00
2018-12-05T12:16:46.309Z,3112.00
2018-12-05T12:17:46.360Z,3104.00
2018-12-05T12:18:46.294Z,3068.00
2018-12-05T12:19:47.343Z,3060.00
2018-12-05T12:20:46.255Z,3036.00
2018-12-05T12:21:46.293Z,3012.00
2018-12-05T12:22:46.231Z,3008.00
2018-12-05T12:23:46.311Z,3000.00
2018-12-05T12:24:46.209Z,2968.00
2018-12-05T12:25:46.221Z,2968.00
2018-12-05T12:26:46.188Z,2952.00
2018-12-05T12:27:46.192Z,2920.00
2018-12-05T12:28:46.191Z,2932.00
2018-12-05T12:29:46.259Z,2644.00
2018-12-05T12:30:46.148Z,2680.00
2018-12-05T12:31:46.243Z,2812.00
2018-12-05T12:32:46.115Z,2800.00
2018-12-05T12:33:46.243Z,2704.00
2018-12-05T12:34:46.101Z,2808.00
2018-12-05T12:35:46.181Z,2796.00
2018-12-05T12:36:46.085Z,2756.00
2018-12-05T12:37:46.223Z,2772.00
2018-12-05T12:38:46.051Z,2692.00
2018-12-05T12:39:46.153Z,2680.00
2018-12-05T12:40:46.023Z,2684.00
2018-12-05T12:41:46.098Z,2676.00
2018-12-05T12:42:46.006Z,2660.00
2018-12-05T12:43:46.040Z,2632.00
2018-12-05T12:44:45.995Z,2600.00
2018-12-05T12:45:46.006Z,2604.00
2018-12-05T12:46:45.965Z,2612.00
2018-12-05T12:47:45.975Z,2568.00
2018-12-05T12:48:45.942Z,2544.00
2018-12-05T12:49:45.983Z,2528.00
2018-12-05T12:50:45.915Z,2532.00
2018-12-05T12:51:46.014Z,2516.00
2018-12-05T12:52:45.898Z,2448.00
2018-12-05T12:53:45.998Z,2420.00
2018-12-05T12:54:45.906Z,2360.00
2018-12-05T12:55:46.043Z,2328.00
2018-12-05T12:56:45.853Z,2244.00
2018-12-05T12:57:45.923Z,2176.00
2018-12-05T12:58:45.835Z,2104.00
2018-12-05T12:59:45.952Z,2072.00
2018-12-05T13:00:45.807Z,2040.00
2018-12-05T13:01:45.886Z,2048.00
2018-12-05T13:02:45.782Z,2060.00
2018-12-05T13:03:45.826Z,2028.00
2018-12-05T13:04:45.781Z,1952.00
2018-12-05T13:05:45.792Z,1864.00
2018-12-05T13:06:45.732Z,1828.00
2018-12-05T13:07:45.761Z,1832.00
2018-12-05T13:08:45.712Z,1844.00
2018-12-05T13:09:45.774Z,1880.00
2018-12-05T13:10:45.689Z,1912.00
2018-12-05T13:11:45.805Z,1940.00
2018-12-05T13:12:45.668Z,1960.00
2018-12-05T13:13:46.686Z,1932.00
2018-12-05T13:14:45.669Z,1908.00
2018-12-05T13:15:45.747Z,1900.00
2018-12-05T13:16:45.626Z,1888.00
2018-12-05T13:17:45.703Z,1884.00
2018-12-05T13:18:45.610Z,1876.00
2018-12-05T13:19:45.724Z,1868.00
2018-12-05T13:20:45.591Z,1864.00
2018-12-05T13:21:45.643Z,1848.00
2018-12-05T13:22:45.561Z,1836.00
2018-12-05T13:23:45.607Z,1808.00
2018-12-05T13:24:45.555Z,1776.00
2018-12-05T13:25:45.581Z,1752.00
2018-12-05T13:26:45.531Z,1756.00
2018-12-05T13:27:45.551Z,1756.00
2018-12-05T13:28:45.499Z,1752.00
2018-12-05T13:29:45.550Z,1748.00
2018-12-05T13:30:45.465Z,1744.00
2018-12-05T13:31:45.481Z,1736.00
2018-12-05T13:32:45.437Z,1736.00
2018-12-05T13:33:45.556Z,1732.00
2018-12-05T13:34:45.463Z,1720.00
2018-12-05T13:35:45.457Z,1704.00
2018-12-05T13:36:45.397Z,1696.00
2018-12-05T13:37:45.495Z,1692.00
2018-12-05T13:38:45.373Z,1688.00
2018-12-05T13:39:45.459Z,1688.00
2018-12-05T13:40:47.001Z,1680.00
2018-12-05T13:41:45.431Z,1672.00
2018-12-05T13:42:45.341Z,1656.00
2018-12-05T13:43:45.388Z,1652.00
2018-12-05T13:44:45.311Z,1644.00
2018-12-05T13:45:45.413Z,1628.00
2018-12-05T13:46:45.289Z,1612.00
2018-12-05T13:47:45.327Z,1608.00
2018-12-05T13:48:45.274Z,1588.00
2018-12-05T13:49:45.298Z,1568.00
2018-12-05T13:50:45.275Z,1540.00
2018-12-05T13:51:45.366Z,1512.00
2018-12-05T13:52:45.226Z,1484.00
2018-12-05T13:53:45.334Z,1476.00
2018-12-05T13:54:45.202Z,1464.00
2018-12-05T13:55:46.358Z,1452.00
2018-12-05T13:56:45.173Z,1436.00
2018-12-05T13:57:45.281Z,1412.00
2018-12-05T13:58:45.157Z,1392.00
2018-12-05T13:59:45.239Z,1376.00
2018-12-05T14:00:45.159Z,1356.00
2018-12-05T14:01:45.220Z,1336.00
2018-12-05T14:02:45.113Z,1312.00
2018-12-05T14:03:45.174Z,1288.00
2018-12-05T14:04:45.080Z,1276.00
2018-12-05T14:05:45.188Z,1256.00
2018-12-05T14:06:45.064Z,1236.00
2018-12-05T14:07:45.126Z,1220.00
2018-12-05T14:08:45.044Z,1196.00
2018-12-05T14:09:45.084Z,1172.00
2018-12-05T14:10:45.032Z,1144.00
2018-12-05T14:11:45.049Z,1116.00
2018-12-05T14:12:44.998Z,1088.00
2018-12-05T14:13:45.028Z,1056.00
2018-12-05T14:14:44.977Z,1012.00
2018-12-05T14:15:45.027Z,964.00
2018-12-05T14:16:44.967Z,940.00
2018-12-05T14:17:45.057Z,912.00
2018-12-05T14:18:44.927Z,884.00
2018-12-05T14:19:45.029Z,876.00
2018-12-05T14:20:44.931Z,868.00
2018-12-05T14:21:45.035Z,848.00
2018-12-05T14:22:44.887Z,824.00
2018-12-05T14:23:44.963Z,800.00
2018-12-05T14:24:44.861Z,776.00
2018-12-05T14:25:44.965Z,744.00
2018-12-05T14:26:44.854Z,712.00
2018-12-05T14:27:44.900Z,684.00
2018-12-05T14:28:44.817Z,652.00
2018-12-05T14:29:44.817Z,624.00
2018-12-05T14:30:46.491Z,592.00
2018-12-05T14:31:45.896Z,564.00
2018-12-05T14:32:44.768Z,536.00
2018-12-05T14:33:44.805Z,508.00
2018-12-05T14:34:44.747Z,484.00
2018-12-05T14:35:44.794Z,464.00
2018-12-05T14:36:44.751Z,444.00
2018-12-05T14:37:44.852Z,420.00
2018-12-05T14:38:44.709Z,404.00
2018-12-05T14:39:44.819Z,384.00
2018-12-05T14:40:44.679Z,364.00
2018-12-05T14:41:44.721Z,348.00
2018-12-05T14:42:44.661Z,332.00
2018-12-05T14:43:44.747Z,312.00
2018-12-05T14:44:44.639Z,296.00
2018-12-05T14:45:44.715Z,280.00
2018-12-05T14:46:44.624Z,264.00
2018-12-05T14:47:44.686Z,248.00
2018-12-05T14:48:44.591Z,236.00
2018-12-05T14:49:45.673Z,220.00
2018-12-05T14:50:44.572Z,208.00
2018-12-05T14:51:44.671Z,196.00
2018-12-05T14:52:44.547Z,180.00
2018-12-05T14:53:44.592Z,168.00
2018-12-05T14:54:44.529Z,156.00
2018-12-05T14:55:44.551Z,144.00
2018-12-05T14:56:44.527Z,132.00
2018-12-05T14:57:44.539Z,124.00
2018-12-05T14:58:44.491Z,112.00
2018-12-05T14:59:44.589Z,104.00
2018-12-05T15:00:44.458Z,92.00
2018-12-05T15:01:44.503Z,84.00
2018-12-05T15:02:44.428Z,72.00
2018-12-05T15:03:44.531Z,68.00
2018-12-05T15:04:44.411Z,60.00
2018-12-05T15:05:44.512Z,52.00
2018-12-05T15:06:44.429Z,48.00
2018-12-05T15:07:44.469Z,40.00
2018-12-05T15:08:44.365Z,36.00
2018-12-05T15:09:44.439Z,32.00
2018-12-05T15:10:44.346Z,28.00
2018-12-05T15:11:44.442Z,24.00
2018-12-05T15:12:44.324Z,20.00
2018-12-05T15:13:44.373Z,20.00
2018-12-05T15:14:44.295Z,16.00
2018-12-05T15:15:44.350Z,16.00
2018-12-05T15:16:44.305Z,12.00
2018-12-05T15:17:45.331Z,8.00
2018-12-05T15:18:44.263Z,8.00
2018-12-05T15:19:44.288Z,8.00
2018-12-05T15:20:44.297Z,8.00
2018-12-05T15:21:44.341Z,4.00
2018-12-05T15:22:44.224Z,4.00
2018-12-05T15:23:44.424Z,0.00
2018-12-05T15:24:44.189Z,4.00
2018-12-05T15:25:44.281Z,4.00
2018-12-05T15:26:44.171Z,4.00
2018-12-05T15:27:44.305Z,0.00
2018-12-05T15:28:44.141Z,0.00
2018-12-05T15:29:44.218Z,0.00
2018-12-05T15:30:44.119Z,0.00
2018-12-05T15:31:44.184Z,0.00
2018-12-05T15:32:44.126Z,0.00
2018-12-05T15:33:44.182Z,0.00
2018-12-05T15:34:44.079Z,0.00
2018-12-05T15:35:44.119Z,0.00
2018-12-05T15:36:44.052Z,0.00
2018-12-05T15:37:44.127Z,0.00
2018-12-05T15:38:44.030Z,0.00
2018-12-05T15:39:44.067Z,0.00
2018-12-05T15:40:44.025Z,0.00
2018-12-05T15:41:44.039Z,0.00
2018-12-05T15:42:43.996Z,0.00
2018-12-05T15:43:44.100Z,0.00
2018-12-05T15:44:43.964Z,0.00
2018-12-05T15:45:44.063Z,0.00
2018-12-05T15:46:43.935Z,0.00
2018-12-05T15:47:44.073Z,0.00
2018-12-05T15:48:43.913Z,0.00
2018-12-05T15:49:44.002Z,0.00
2018-12-05T15:50:43.903Z,0.00
2018-12-05T15:51:43.969Z,0.00
2018-12-05T15:52:43.973Z,0.00
2018-12-05T15:53:43.932Z,0.00
2018-12-05T15:54:43.851Z,0.00
2018-12-05T15:55:43.921Z,0.00
2018-12-05T15:56:43.827Z,0.00
2018-12-05T15:57:43.911Z,0.00
2018-12-05T15:58:43.803Z,0.00
2018-12-05T15:59:43.854Z,0.00
2018-12-05T16:00:43.780Z,0.00
2018-12-05T16:01:43.807Z,0.00
2018-12-05T16:02:43.764Z,0.00
2018-12-05T16:03:43.819Z,0.00
2018-12-05T16:04:43.733Z,0.00
2018-12-05T16:05:43.744Z,0.00
2018-12-05T16:06:43.722Z,0.00
2018-12-05T16:07:44.746Z,0.00
2018-12-05T16:08:43.713Z,0.00
2018-12-05T16:09:44.703Z,0.00
2018-12-05T16:10:43.668Z,0.00
2018-12-05T16:11:43.752Z,0.00
2018-12-05T16:12:43.645Z,0.00
2018-12-05T16:13:43.753Z,0.00
2018-12-05T16:14:43.637Z,0.00
2018-12-05T16:15:43.688Z,0.00
2018-12-05T16:16:43.615Z,0.00
2018-12-05T16:17:43.662Z,0.00
2018-12-05T16:18:43.616Z,0.00
2018-12-05T16:19:43.628Z,0.00
2018-12-05T16:20:43.559Z,0.00
2018-12-05T16:21:43.604Z,0.00
2018-12-05T16:22:43.531Z,0.00
2018-12-05T16:23:43.609Z,0.00
2018-12-05T16:24:43.511Z,0.00
2018-12-05T16:25:43.528Z,0.00
2018-12-05T16:26:43.489Z,0.00
2018-12-05T16:27:43.600Z,0.00
2018-12-05T16:28:43.485Z,0.00
2018-12-05T16:29:43.577Z,0.00
2018-12-05T16:30:43.460Z,0.00
2018-12-05T16:31:43.556Z,0.00
2018-12-05T16:32:43.518Z,0.00
2018-12-05T16:33:43.542Z,0.00
2018-12-05T16:34:43.419Z,0.00
2018-12-05T16:35:43.481Z,0.00
2018-12-05T16:36:43.393Z,0.00
2018-12-05T16:37:43.440Z,0.00
2018-12-05T16:38:43.401Z,0.00
2018-12-05T16:39:43.414Z,0.00
2018-12-05T16:40:43.334Z,0.00
2018-12-05T16:41:43.449Z,0.00
2018-12-05T16:42:43.327Z,0.00
2018-12-05T16:43:43.391Z,0.00
2018-12-05T16:44:43.289Z,0.00
2018-12-05T16:45:43.315Z,0.00
2018-12-05T16:46:43.265Z,0.00
2018-12-05T16:47:43.390Z,0.00
2018-12-05T16:48:43.292Z,0.00
2018-12-05T16:49:44.275Z,0.00
2018-12-05T16:50:43.215Z,0.00
2018-12-05T16:51:44.238Z,0.00
2018-12-05T16:52:43.199Z,0.00
2018-12-05T16:53:43.304Z,0.00
2018-12-05T16:54:43.207Z,0.00
2018-12-05T16:55:43.255Z,0.00
2018-12-05T16:56:43.155Z,0.00
2018-12-05T16:57:43.247Z,0.00
2018-12-05T16:58:43.131Z,0.00
2018-12-05T16:59:43.240Z,0.00
2018-12-05T17:00:43.119Z,0.00
2018-12-05T17:01:43.162Z,0.00
2018-12-05T17:02:43.093Z,0.00
2018-12-05T17:03:43.131Z,0.00
2018-12-05T17:04:43.089Z,0.00
2018-12-05T17:05:43.101Z,0.00
2018-12-05T17:06:43.058Z,0.00
2018-12-05T17:07:43.070Z,0.00
2018-12-05T17:08:43.017Z,0.00
2018-12-05T17:09:43.085Z,0.00
2018-12-05T17:10:42.996Z,0.00
2018-12-05T17:11:43.010Z,0.00
2018-12-05T17:12:42.995Z,0.00
2018-12-05T17:13:43.069Z,0.00
2018-12-05T17:14:42.973Z,0.00
2018-12-05T17:15:43.043Z,0.00
2018-12-05T17:16:42.927Z,0.00
2018-12-05T17:17:43.004Z,0.00
2018-12-05T17:18:42.910Z,0.00
2018-12-05T17:19:43.023Z,0.00
2018-12-05T17:20:42.887Z,0.00
2018-12-05T17:21:42.944Z,0.00
2018-12-05T17:22:42.866Z,0.00
2018-12-05T17:23:42.915Z,0.00
2018-12-05T17:24:42.864Z,0.00
2018-12-05T17:25:42.891Z,0.00
2018-12-05T17:26:42.829Z,0.00
2018-12-05T17:27:42.855Z,0.00
2018-12-05T17:28:42.798Z,0.00
2018-12-05T17:29:42.851Z,0.00
2018-12-05T17:30:42.785Z,0.00
2018-12-05T17:31:42.783Z,0.00
2018-12-05T17:32:42.757Z,0.00
2018-12-05T17:33:43.891Z,0.00
2018-12-05T17:34:42.729Z,0.00
2018-12-05T17:35:43.781Z,0.00
2018-12-05T17:36:42.704Z,0.00
2018-12-05T17:37:42.795Z,0.00
2018-12-05T17:38:42.681Z,0.00
2018-12-05T17:39:42.774Z,0.00
2018-12-05T17:40:42.683Z,0.00
2018-12-05T17:41:42.737Z,0.00
2018-12-05T17:42:42.641Z,0.00
2018-12-05T17:43:42.702Z,0.00
2018-12-05T17:44:42.615Z,0.00
2018-12-05T17:45:42.701Z,0.00
2018-12-05T17:46:42.587Z,0.00
2018-12-05T17:47:42.632Z,0.00
2018-12-05T17:48:42.574Z,0.00
2018-12-05T17:49:42.599Z,0.00
2018-12-05T17:50:42.699Z,0.00
2018-12-05T17:51:42.567Z,0.00
2018-12-05T17:52:42.523Z,0.00
2018-12-05T17:53:42.534Z,0.00
2018-12-05T17:54:42.513Z,0.00
2018-12-05T17:55:42.555Z,0.00
2018-12-05T17:56:42.562Z,0.00
2018-12-05T17:57:42.607Z,0.00
2018-12-05T17:58:42.455Z,0.00
2018-12-05T17:59:42.550Z,0.00
2018-12-05T18:00:42.455Z,0.00
2018-12-05T18:01:44.255Z,0.00
2018-12-05T18:02:42.412Z,0.00
2018-12-05T18:03:42.479Z,0.00
2018-12-05T18:04:42.388Z,0.00
2018-12-05T18:05:42.498Z,0.00
2018-12-05T18:06:42.379Z,0.00
2018-12-05T18:07:42.417Z,0.00
2018-12-05T18:08:42.808Z,0.00
2018-12-05T18:09:42.385Z,0.00
2018-12-05T18:10:42.473Z,0.00
2018-12-05T18:11:42.391Z,0.00
2018-12-05T18:12:42.307Z,0.00
2018-12-05T18:13:42.974Z,0.00
2018-12-05T18:14:42.288Z,0.00
2018-12-05T18:15:47.409Z,0.00
2018-12-05T18:16:42.272Z,0.00
2018-12-05T18:17:43.284Z,0.00
2018-12-05T18:18:42.227Z,0.00
2018-12-05T18:19:42.339Z,0.00
2018-12-05T18:20:42.225Z,0.00
2018-12-05T18:21:42.469Z,0.00
2018-12-05T18:22:42.201Z,0.00
2018-12-05T18:23:42.261Z,0.00
2018-12-05T18:24:42.787Z,0.00
2018-12-05T18:25:43.355Z,0.00
2018-12-05T18:26:44.331Z,0.00
2018-12-05T18:27:43.225Z,0.00
2018-12-05T18:28:42.129Z,0.00
2018-12-05T18:29:42.175Z,0.00
2018-12-05T18:30:42.098Z,0.00
2018-12-05T18:31:42.272Z,0.00
2018-12-05T18:32:42.073Z,0.00
2018-12-05T18:33:42.109Z,0.00
2018-12-05T18:34:42.073Z,0.00
2018-12-05T18:35:42.185Z,0.00
2018-12-05T18:36:42.051Z,0.00
2018-12-05T18:37:42.149Z,0.00
2018-12-05T18:38:42.009Z,0.00
2018-12-05T18:39:42.119Z,0.00
2018-12-05T18:40:41.983Z,0.00
2018-12-05T18:41:42.125Z,0.00
2018-12-05T18:42:41.975Z,0.00
2018-12-05T18:43:42.261Z,0.00
2018-12-05T18:44:41.951Z,0.00
2018-12-05T18:45:42.029Z,0.00
2018-12-05T18:46:41.937Z,0.00
2018-12-05T18:47:42.103Z,0.00
2018-12-05T18:48:41.913Z,0.00
2018-12-05T18:49:42.055Z,0.00
2018-12-05T18:50:41.888Z,0.00
2018-12-05T18:51:41.955Z,0.00
2018-12-05T18:52:41.846Z,0.00
2018-12-05T18:53:41.999Z,0.00
2018-12-05T18:54:41.850Z,0.00
2018-12-05T18:55:41.964Z,0.00
2018-12-05T18:56:41.834Z,0.00
2018-12-05T18:57:41.932Z,0.00
2018-12-05T18:58:41.792Z,0.00
2018-12-05T18:59:41.904Z,0.00
2018-12-05T19:00:41.757Z,0.00
2018-12-05T19:01:41.974Z,0.00
2018-12-05T19:02:41.764Z,0.00
2018-12-05T19:03:41.830Z,0.00
2018-12-05T19:04:41.716Z,0.00
2018-12-05T19:05:41.901Z,0.00
2018-12-05T19:06:41.700Z,0.00
2018-12-05T19:07:41.819Z,0.00
2018-12-05T19:08:41.664Z,0.00
2018-12-05T19:09:41.751Z,0.00
2018-12-05T19:10:41.652Z,0.00
2018-12-05T19:11:41.804Z,0.00
2018-12-05T19:12:41.644Z,0.00
2018-12-05T19:13:41.671Z,0.00
2018-12-05T19:14:41.606Z,0.00
2018-12-05T19:15:41.644Z,0.00
2018-12-05T19:16:41.582Z,0.00
2018-12-05T19:17:41.658Z,0.00
2018-12-05T19:18:41.562Z,0.00
2018-12-05T19:19:41.591Z,0.00
2018-12-05T19:20:41.547Z,0.00
2018-12-05T19:21:41.548Z,0.00
2018-12-05T19:22:41.534Z,0.00
2018-12-05T19:23:41.613Z,0.00
2018-12-05T19:24:41.491Z,0.00
2018-12-05T19:25:41.661Z,0.00
2018-12-05T19:26:41.473Z,0.00
2018-12-05T19:27:41.604Z,0.00
2018-12-05T19:28:41.450Z,0.00
2018-12-05T19:29:41.520Z,0.00
2018-12-05T19:30:41.420Z,0.00
2018-12-05T19:31:41.494Z,0.00
2018-12-05T19:32:41.434Z,0.00
2018-12-05T19:33:41.466Z,0.00
2018-12-05T19:34:41.382Z,0.00
2018-12-05T19:35:41.430Z,0.00
2018-12-05T19:36:41.380Z,0.00
2018-12-05T19:37:41.414Z,0.00
2018-12-05T19:38:41.350Z,0.00
2018-12-05T19:39:41.365Z,0.00
2018-12-05T19:40:41.325Z,0.00
2018-12-05T19:41:41.329Z,0.00
2018-12-05T19:42:41.288Z,0.00
2018-12-05T19:43:41.342Z,0.00
2018-12-05T19:44:41.267Z,0.00
2018-12-05T19:45:42.397Z,0.00
2018-12-05T19:46:41.271Z,0.00
2018-12-05T19:47:42.256Z,0.00
2018-12-05T19:48:41.259Z,0.00
2018-12-05T19:49:43.251Z,0.00
2018-12-05T19:50:41.206Z,0.00
2018-12-05T19:51:41.273Z,0.00
2018-12-05T19:52:41.210Z,0.00
2018-12-05T19:53:41.277Z,0.00
2018-12-05T19:54:41.143Z,0.00
2018-12-05T19:55:41.326Z,0.00
2018-12-05T19:56:41.142Z,0.00
2018-12-05T19:57:41.278Z,0.00
2018-12-05T19:58:41.155Z,0.00
2018-12-05T19:59:41.257Z,0.00
2018-12-05T20:00:41.078Z,0.00
2018-12-05T20:01:41.116Z,0.00
2018-12-05T20:02:41.060Z,0.00
2018-12-05T20:03:41.219Z,0.00
2018-12-05T20:04:41.046Z,0.00
2018-12-05T20:05:41.151Z,0.00
2018-12-05T20:06:41.016Z,0.00
2018-12-05T20:07:41.220Z,0.00
2018-12-05T20:08:42.787Z,0.00
2018-12-05T20:09:41.087Z,0.00
2018-12-05T20:10:40.965Z,0.00
2018-12-05T20:11:41.053Z,0.00
2018-12-05T20:12:40.950Z,0.00
2018-12-05T20:13:44.029Z,0.00
2018-12-05T20:14:40.936Z,0.00
2018-12-05T20:15:41.000Z,0.00
2018-12-05T20:16:40.912Z,0.00
2018-12-05T20:17:40.974Z,0.00
2018-12-05T20:18:40.885Z,0.00
2018-12-05T20:19:40.981Z,0.00
2018-12-05T20:20:40.874Z,0.00
2018-12-05T20:21:41.000Z,0.00
2018-12-05T20:22:40.834Z,0.00
2018-12-05T20:23:40.865Z,0.00
2018-12-05T20:24:40.843Z,0.00
2018-12-05T20:25:41.041Z,0.00
2018-12-05T20:26:40.793Z,0.00
2018-12-05T20:27:40.902Z,0.00
2018-12-05T20:28:42.244Z,0.00
2018-12-05T20:29:41.069Z,0.00
2018-12-05T20:30:40.759Z,0.00
2018-12-05T20:31:41.869Z,0.00
2018-12-05T20:32:40.723Z,0.00
2018-12-05T20:33:40.820Z,0.00
2018-12-05T20:34:40.727Z,0.00
2018-12-05T20:35:40.892Z,0.00
2018-12-05T20:36:40.915Z,0.00
2018-12-05T20:37:40.744Z,0.00
2018-12-05T20:38:40.658Z,0.00
2018-12-05T20:39:40.869Z,0.00
2018-12-05T20:40:40.639Z,0.00
2018-12-05T20:41:41.722Z,0.00
2018-12-05T20:42:40.632Z,0.00
2018-12-05T20:43:41.774Z,0.00
2018-12-05T20:44:40.601Z,0.00
2018-12-05T20:45:40.721Z,0.00
2018-12-05T20:46:40.569Z,0.00
2018-12-05T20:47:40.592Z,0.00
2018-12-05T20:48:40.549Z,0.00
2018-12-05T20:49:40.710Z,0.00
2018-12-05T20:50:40.525Z,0.00
2018-12-05T20:51:40.631Z,0.00
2018-12-05T20:52:40.500Z,0.00
2018-12-05T20:53:40.607Z,0.00
2018-12-05T20:54:40.486Z,0.00
2018-12-05T20:55:40.609Z,0.00
2018-12-05T20:56:40.458Z,0.00
2018-12-05T20:57:40.636Z,0.00
2018-12-05T20:58:40.440Z,0.00
2018-12-05T20:59:40.542Z,0.00
2018-12-05T21:00:40.444Z,0.00
2018-12-05T21:01:40.568Z,0.00
2018-12-05T21:02:40.387Z,0.00
2018-12-05T21:03:40.530Z,0.00
2018-12-05T21:04:40.368Z,0.00
2018-12-05T21:05:41.576Z,0.00
2018-12-05T21:06:40.335Z,0.00
2018-12-05T21:07:40.478Z,0.00
2018-12-05T21:08:40.318Z,0.00
2018-12-05T21:09:42.380Z,0.00
2018-12-05T21:10:40.334Z,0.00
2018-12-05T21:11:40.416Z,0.00
2018-12-05T21:12:40.276Z,0.00
2018-12-05T21:13:41.398Z,0.00
2018-12-05T21:14:40.247Z,0.00
2018-12-05T21:15:41.273Z,0.00
2018-12-05T21:16:40.228Z,0.00
2018-12-05T21:17:40.314Z,0.00
2018-12-05T21:18:40.237Z,0.00
2018-12-05T21:19:40.392Z,0.00
2018-12-05T21:20:40.206Z,0.00
2018-12-05T21:21:42.294Z,0.00
2018-12-05T21:22:46.928Z,0.00
2018-12-05T21:23:43.295Z,0.00
2018-12-05T21:24:40.144Z,0.00
2018-12-05T21:25:40.328Z,0.00